Time;durP1;ratioP1;P1;durP2;ratioP2;P2;SDS_P1;SDS_P2;PMS_P1;PMS_P2;Temp;Humidity;BMP_temperature;BMP_pressure;BME280_temperature;BME280_humidity;BME280_pressure;Samples;Min_cycle;Max_cycle;Signal;HPM_P1;HPM_P2
2023/07/30 00:01:30;;;;;;;8.25;3.33;;;;;;;-144.48;100.00;62369.91;5011563;28;20034;-67
2023/07/30 00:03:55;;;;;;;9.13;4.03;;;;;;;-144.48;100.00;62369.91;5024476;28;20100;-67
2023/07/30 00:06:20;;;;;;;12.18;3.60;;;;;;;-144.48;100.00;62369.91;5022959;28;20021;-65
2023/07/30 00:08:46;;;;;;;20.42;3.33;;;;;;;-144.48;100.00;62369.91;5017486;28;20017;-67
2023/07/30 00:11:11;;;;;;;7.75;3.45;;;;;;;-144.48;100.00;62369.91;5018381;28;20048;-67
2023/07/30 00:13:36;;;;;;;7.07;3.30;;;;;;;-144.48;100.00;62369.91;5023776;28;20526;-66
2023/07/30 00:16:02;;;;;;;9.52;3.40;;;;;;;-144.48;100.00;62369.91;5022583;28;20120;-67
2023/07/30 00:18:27;;;;;;;10.52;4.03;;;;;;;-144.48;100.00;62369.91;5016989;28;20103;-68
2023/07/30 00:20:53;;;;;;;9.65;3.33;;;;;;;-144.48;100.00;62369.91;5018578;28;20029;-67
2023/07/30 00:23:18;;;;;;;9.23;3.28;;;;;;;-144.48;100.00;62369.91;5023927;28;20088;-68
2023/07/30 00:25:43;;;;;;;7.13;3.80;;;;;;;-144.48;100.00;62369.91;5011468;28;20025;-68
2023/07/30 00:28:09;;;;;;;11.15;3.90;;;;;;;-144.48;100.00;62369.91;5019816;28;20083;-66
2023/07/30 00:30:34;;;;;;;10.00;3.47;;;;;;;-144.48;100.00;62369.91;4997304;28;20034;-67
2023/07/30 00:33:00;;;;;;;7.40;3.70;;;;;;;-144.48;100.00;62369.91;5003826;28;20089;-66
2023/07/30 00:35:25;;;;;;;8.23;4.18;;;;;;;-144.48;100.00;62369.91;5021522;28;20029;-65
2023/07/30 00:37:50;;;;;;;11.30;4.72;;;;;;;-144.48;100.00;62369.91;4998967;28;20035;-67
2023/07/30 00:40:17;;;;;;;12.30;4.65;;;;;;;-144.48;100.00;62369.91;5019346;28;20058;-66
2023/07/30 00:42:42;;;;;;;13.43;3.85;;;;;;;-144.48;100.00;62369.91;5022720;28;20029;-67
2023/07/30 00:45:09;;;;;;;8.82;3.65;;;;;;;-144.48;100.00;62369.91;5021281;28;20079;-66
2023/07/30 00:47:35;;;;;;;9.25;3.45;;;;;;;-144.48;100.00;62369.91;5016590;28;20575;-67
2023/07/30 00:50:01;;;;;;;6.18;3.08;;;;;;;-144.48;100.00;62369.91;5001756;28;20030;-66
2023/07/30 00:52:27;;;;;;;6.63;2.75;;;;;;;-144.48;100.00;62369.91;5006009;28;20109;-68
2023/07/30 00:54:54;;;;;;;6.40;2.75;;;;;;;-144.48;100.00;62369.91;5021011;28;20033;-67
2023/07/30 00:57:20;;;;;;;11.73;3.88;;;;;;;-144.48;100.00;62369.91;5016428;28;20060;-66
2023/07/30 00:59:47;;;;;;;13.20;3.30;;;;;;;-144.48;100.00;62369.91;5019044;28;20053;-64
2023/07/30 01:02:13;;;;;;;6.70;2.88;;;;;;;-144.48;100.00;62369.91;5023152;28;20129;-68
2023/07/30 01:04:40;;;;;;;6.22;3.30;;;;;;;-144.48;100.00;62369.91;5020396;28;20080;-64
2023/07/30 01:07:06;;;;;;;6.88;2.38;;;;;;;-144.48;100.00;62369.91;5016435;28;20026;-64
2023/07/30 01:09:32;;;;;;;5.80;2.70;;;;;;;-144.48;100.00;62369.91;5019013;28;20013;-65
2023/07/30 01:11:59;;;;;;;6.50;3.05;;;;;;;-144.48;100.00;62369.91;5022596;28;20030;-67
2023/07/30 01:14:26;;;;;;;9.38;3.95;;;;;;;-144.48;100.00;62369.91;5002799;28;20093;-66
2023/07/30 01:16:52;;;;;;;9.55;2.90;;;;;;;-144.48;100.00;62369.91;5016349;28;20021;-67
2023/07/30 01:19:17;;;;;;;12.80;3.58;;;;;;;-144.48;100.00;62369.91;5017514;28;20558;-66
2023/07/30 01:21:42;;;;;;;10.93;2.90;;;;;;;-144.48;100.00;62369.91;5023369;28;20533;-67
2023/07/30 01:24:08;;;;;;;6.85;2.95;;;;;;;-144.48;100.00;62369.91;5017055;28;20436;-66
2023/07/30 01:26:49;;;;;;;5.85;2.38;;;;;;;-144.48;100.00;62369.91;5017964;28;20026;-68
2023/07/30 01:29:22;;;;;;;8.45;3.05;;;;;;;-144.48;100.00;62369.91;5022503;28;20546;-66
2023/07/30 01:31:55;;;;;;;5.13;2.38;;;;;;;-144.48;100.00;62369.91;5011248;23;20046;-66
2023/07/30 01:34:22;;;;;;;5.25;2.45;;;;;;;-144.48;100.00;62369.91;5007468;28;20092;-66
2023/07/30 01:36:49;;;;;;;6.07;2.70;;;;;;;-144.48;100.00;62369.91;5009501;28;20057;-66
2023/07/30 01:39:15;;;;;;;8.27;3.20;;;;;;;-144.48;100.00;62369.91;5009306;28;20109;-66
2023/07/30 01:41:40;;;;;;;9.43;2.92;;;;;;;-144.48;100.00;62369.91;5009248;28;20041;-65
2023/07/30 01:44:06;;;;;;;7.10;2.92;;;;;;;-144.48;100.00;62369.91;5009607;28;20030;-67
2023/07/30 01:46:31;;;;;;;8.38;3.15;;;;;;;-144.48;100.00;62369.91;5009862;28;20022;-70
2023/07/30 01:48:56;;;;;;;6.43;3.35;;;;;;;-144.48;100.00;62369.91;5010284;28;20029;-67
2023/07/30 01:51:22;;;;;;;4.97;2.42;;;;;;;-144.48;100.00;62369.91;5009929;28;20026;-64
2023/07/30 01:53:47;;;;;;;5.95;3.17;;;;;;;-144.48;100.00;62369.91;5009297;28;20048;-66
2023/07/30 01:56:12;;;;;;;4.65;2.72;;;;;;;-144.48;100.00;62369.91;5009705;28;20030;-66
2023/07/30 01:58:38;;;;;;;5.40;2.88;;;;;;;-144.48;100.00;62369.91;5008827;28;20120;-66
2023/07/30 02:01:03;;;;;;;27.20;3.80;;;;;;;-144.48;100.00;62369.91;5008899;28;20045;-67
2023/07/30 02:03:29;;;;;;;6.63;3.30;;;;;;;-144.48;100.00;62369.91;5008602;28;20069;-63
2023/07/30 02:05:54;;;;;;;4.80;2.47;;;;;;;-144.48;100.00;62369.91;5009551;28;20524;-67
2023/07/30 02:08:19;;;;;;;11.05;2.55;;;;;;;-144.48;100.00;62369.91;5009097;28;20054;-65
2023/07/30 02:10:54;;;;;;;6.72;2.58;;;;;;;-144.48;100.00;62369.91;5009404;28;20025;-67
2023/07/30 02:13:20;;;;;;;6.00;2.65;;;;;;;-144.48;100.00;62369.91;5009483;28;20550;-62
2023/07/30 02:15:45;;;;;;;6.68;2.25;;;;;;;-144.48;100.00;62369.91;4991027;28;20037;-66
2023/07/30 02:18:10;;;;;;;5.63;2.55;;;;;;;-144.48;100.00;62369.91;5008261;28;20535;-64
2023/07/30 02:20:35;;;;;;;9.60;2.90;;;;;;;-144.48;100.00;62369.91;5009096;28;20034;-66
2023/07/30 02:23:01;;;;;;;6.00;2.45;;;;;;;-144.48;100.00;62369.91;5008475;28;20488;-65
2023/07/30 02:25:26;;;;;;;4.10;2.30;;;;;;;-144.48;100.00;62369.91;5015882;28;20025;-65
2023/07/30 02:27:52;;;;;;;7.55;2.22;;;;;;;-144.48;100.00;62369.91;5017220;28;20386;-64
2023/07/30 02:30:17;;;;;;;7.88;2.60;;;;;;;-144.48;100.00;62369.91;4991681;28;20076;-67
2023/07/30 02:32:43;;;;;;;11.65;2.38;;;;;;;-144.48;100.00;62369.91;5021578;28;20111;-66
2023/07/30 02:35:09;;;;;;;10.52;2.38;;;;;;;-144.48;100.00;62369.91;5017515;28;20117;-63
2023/07/30 02:37:34;;;;;;;7.88;2.53;;;;;;;-144.48;100.00;62369.91;5012206;28;20076;-67
2023/07/30 02:39:59;;;;;;;5.60;2.55;;;;;;;-144.48;100.00;62369.91;5011323;28;20151;-67
2023/07/30 02:42:25;;;;;;;7.47;2.60;;;;;;;-144.48;100.00;62369.91;5010913;28;20050;-66
2023/07/30 02:44:50;;;;;;;8.25;2.65;;;;;;;-144.48;100.00;62369.91;5011461;28;20026;-65
2023/07/30 02:47:15;;;;;;;5.45;2.63;;;;;;;-144.48;100.00;62369.91;4994115;28;20030;-67
2023/07/30 02:49:41;;;;;;;26.10;5.25;;;;;;;-144.48;100.00;62369.91;5011776;28;20018;-64
2023/07/30 02:52:06;;;;;;;10.98;2.50;;;;;;;-144.48;100.00;62369.91;5011814;28;20025;-65
2023/07/30 02:54:32;;;;;;;9.38;2.17;;;;;;;-144.48;100.00;62369.91;5011414;28;20345;-65
2023/07/30 02:56:57;;;;;;;15.35;2.65;;;;;;;-144.48;100.00;62369.91;4993912;28;20088;-63
2023/07/30 02:59:22;;;;;;;11.05;2.60;;;;;;;-144.48;100.00;62369.91;5011876;28;20034;-67
2023/07/30 03:01:48;;;;;;;10.93;2.72;;;;;;;-144.48;100.00;62369.91;5010722;28;20376;-63
2023/07/30 03:04:13;;;;;;;7.95;2.25;;;;;;;-144.48;100.00;62369.91;5010793;28;20030;-66
2023/07/30 03:06:38;;;;;;;4.35;2.30;;;;;;;-144.48;100.00;62369.91;5012129;28;20029;-66
2023/07/30 03:09:04;;;;;;;5.50;2.58;;;;;;;-144.48;100.00;62369.91;5012578;28;20022;-66
2023/07/30 03:11:29;;;;;;;4.63;2.33;;;;;;;-144.48;100.00;62369.91;4993898;28;20608;-68
2023/07/30 03:13:55;;;;;;;9.27;2.45;;;;;;;-144.48;100.00;62369.91;5011097;28;20104;-67
2023/07/30 03:16:20;;;;;;;7.15;2.60;;;;;;;-144.48;100.00;62369.91;5010982;28;20033;-66
2023/07/30 03:18:45;;;;;;;9.50;2.17;;;;;;;-144.48;100.00;62369.91;5011034;28;20029;-68
2023/07/30 03:21:11;;;;;;;9.77;3.95;;;;;;;-144.48;100.00;62369.91;5010759;28;20022;-67
2023/07/30 03:23:36;;;;;;;7.55;2.92;;;;;;;-144.48;100.00;62369.91;5010394;28;20034;-64
2023/07/30 03:26:01;;;;;;;6.43;2.55;;;;;;;-144.48;100.00;62369.91;5017017;28;20022;-67
2023/07/30 03:28:27;;;;;;;6.65;2.70;;;;;;;-144.48;100.00;62369.91;5018944;28;20262;-64
2023/07/30 03:30:52;;;;;;;4.82;2.65;;;;;;;-144.48;100.00;62369.91;5010061;28;20033;-67
2023/07/30 03:33:17;;;;;;;9.68;2.58;;;;;;;-144.48;100.00;62369.91;5010486;28;20124;-67
2023/07/30 03:35:43;;;;;;;9.20;2.58;;;;;;;-144.48;100.00;62369.91;5010333;28;20095;-67
2023/07/30 03:38:08;;;;;;;9.93;2.92;;;;;;;-144.48;100.00;62369.91;5017579;28;20018;-68
2023/07/30 03:40:33;;;;;;;5.85;2.58;;;;;;;-144.48;100.00;62369.91;5016159;28;20095;-66
2023/07/30 03:42:59;;;;;;;7.40;2.75;;;;;;;-144.48;100.00;62369.91;4990978;28;20131;-65
2023/07/30 03:45:24;;;;;;;5.40;2.78;;;;;;;-144.48;100.00;62369.91;5009405;28;20112;-66
2023/07/30 03:47:49;;;;;;;5.75;2.40;;;;;;;-144.48;100.00;62369.91;5009754;28;20077;-67
2023/07/30 03:50:15;;;;;;;7.43;2.53;;;;;;;-144.48;100.00;62369.91;5009643;28;20052;-63
2023/07/30 03:52:40;;;;;;;9.43;2.80;;;;;;;-144.48;100.00;62369.91;5009998;28;20056;-68
2023/07/30 03:55:06;;;;;;;10.02;2.40;;;;;;;-144.48;100.00;62369.91;5009332;28;20026;-64
2023/07/30 03:57:31;;;;;;;13.63;2.88;;;;;;;-144.48;100.00;62369.91;5009781;28;20047;-67
2023/07/30 03:59:57;;;;;;;8.32;3.05;;;;;;;-144.48;100.00;62369.91;5009721;28;20159;-66
2023/07/30 04:02:22;;;;;;;5.20;2.72;;;;;;;-144.48;100.00;62369.91;5009804;28;20029;-67
2023/07/30 04:04:49;;;;;;;6.97;2.47;;;;;;;-144.48;100.00;62369.91;5009810;28;20421;-65
2023/07/30 04:07:15;;;;;;;8.00;3.05;;;;;;;-144.48;100.00;62369.91;4996736;28;20022;-63
2023/07/30 04:09:40;;;;;;;6.13;2.40;;;;;;;-144.48;100.00;62369.91;5008513;28;20084;-67
2023/07/30 04:12:06;;;;;;;5.45;2.85;;;;;;;-144.48;100.00;62369.91;5009258;28;20022;-67
2023/07/30 04:14:31;;;;;;;8.35;2.95;;;;;;;-144.48;100.00;62369.91;5009701;28;20535;-67
2023/07/30 04:16:56;;;;;;;5.82;2.40;;;;;;;-144.48;100.00;62369.91;5009546;28;20114;-66
2023/07/30 04:19:22;;;;;;;6.22;2.60;;;;;;;-144.48;100.00;62369.91;4991658;28;20061;-67
2023/07/30 04:21:47;;;;;;;6.22;2.80;;;;;;;-144.48;100.00;62369.91;5009579;28;20022;-63
2023/07/30 04:24:12;;;;;;;11.50;2.47;;;;;;;-144.48;100.00;62369.91;5009422;28;20342;-67
2023/07/30 04:26:38;;;;;;;7.78;2.63;;;;;;;-144.48;100.00;62369.91;5018409;28;20037;-66
2023/07/30 04:29:03;;;;;;;6.25;2.90;;;;;;;-144.48;100.00;62369.91;5016857;28;20468;-62
2023/07/30 04:31:29;;;;;;;9.82;2.80;;;;;;;-144.48;100.00;62369.91;4985699;28;20498;-67
2023/07/30 04:33:54;;;;;;;7.88;2.75;;;;;;;-144.48;100.00;62369.91;5009276;28;20412;-62
2023/07/30 04:36:19;;;;;;;5.90;2.92;;;;;;;-144.48;100.00;62369.91;5009184;28;20030;-66
2023/07/30 04:38:45;;;;;;;10.50;2.67;;;;;;;-144.48;100.00;62369.91;5009504;28;20160;-66
2023/07/30 04:41:10;;;;;;;5.20;2.47;;;;;;;-144.48;100.00;62369.91;5008390;28;20046;-67
2023/07/30 04:43:35;;;;;;;6.55;3.10;;;;;;;-144.48;100.00;62369.91;5009509;28;20128;-67
2023/07/30 04:46:01;;;;;;;7.30;3.10;;;;;;;-144.48;100.00;62369.91;5009201;28;20511;-67
2023/07/30 04:48:26;;;;;;;8.00;2.70;;;;;;;-144.48;100.00;62369.91;5009156;28;20073;-64
2023/07/30 04:50:52;;;;;;;5.18;2.53;;;;;;;-144.48;100.00;62369.91;5007425;28;20049;-66
2023/07/30 04:53:18;;;;;;;5.60;2.38;;;;;;;-144.48;100.00;62369.91;5009049;28;20037;-65
2023/07/30 04:55:44;;;;;;;7.32;3.10;;;;;;;-144.48;100.00;62369.91;5009137;28;20034;-65
2023/07/30 04:58:09;;;;;;;12.27;3.28;;;;;;;-144.48;100.00;62369.91;5009840;28;20100;-67
2023/07/30 05:00:35;;;;;;;8.40;3.40;;;;;;;-144.48;100.00;62369.91;5009554;28;20041;-67
2023/07/30 05:03:00;;;;;;;4.82;2.95;;;;;;;-144.48;100.00;62369.91;5009870;28;20034;-67
2023/07/30 05:05:25;;;;;;;9.23;2.90;;;;;;;-144.48;100.00;62369.91;5009998;28;20026;-67
2023/07/30 05:07:51;;;;;;;7.22;2.90;;;;;;;-144.48;100.00;62369.91;5010885;28;20107;-67
2023/07/30 05:10:16;;;;;;;13.18;2.70;;;;;;;-144.48;100.00;62369.91;5010664;28;20135;-65
2023/07/30 05:12:41;;;;;;;6.13;3.47;;;;;;;-144.48;100.00;62369.91;5010309;28;20530;-66
2023/07/30 05:15:07;;;;;;;11.48;4.05;;;;;;;-144.48;100.00;62369.91;5010160;28;20127;-66
2023/07/30 05:17:33;;;;;;;8.43;2.97;;;;;;;-144.48;100.00;62369.91;5009835;28;20080;-68
2023/07/30 05:19:58;;;;;;;4.78;2.60;;;;;;;-144.48;100.00;62369.91;5009756;28;20392;-69
2023/07/30 05:22:25;;;;;;;7.10;2.97;;;;;;;-144.48;100.00;62369.91;5010253;28;20494;-65
2023/07/30 05:24:50;;;;;;;7.22;3.63;;;;;;;-144.48;100.00;62369.91;5012911;28;20108;-66
2023/07/30 05:27:16;;;;;;;6.70;2.78;;;;;;;-144.48;100.00;62369.91;5021195;28;20111;-67
2023/07/30 05:29:41;;;;;;;6.57;2.78;;;;;;;-144.48;100.00;62369.91;5013470;28;20025;-68
2023/07/30 05:32:07;;;;;;;5.90;2.65;;;;;;;-144.48;100.00;62369.91;4988728;28;20036;-67
2023/07/30 05:34:33;;;;;;;4.85;2.78;;;;;;;-144.48;100.00;62369.91;5008693;28;20097;-63
2023/07/30 05:36:58;;;;;;;5.10;2.35;;;;;;;-144.48;100.00;62369.91;5009301;28;20540;-67
2023/07/30 05:39:23;;;;;;;10.43;3.13;;;;;;;-144.48;100.00;62369.91;5011252;28;20026;-67
2023/07/30 05:41:49;;;;;;;10.70;3.08;;;;;;;-144.48;100.00;62369.91;5009254;28;20018;-65
2023/07/30 05:44:14;;;;;;;12.98;2.97;;;;;;;-144.48;100.00;62369.91;5008749;28;20551;-65
2023/07/30 05:46:39;;;;;;;10.50;2.90;;;;;;;-144.48;100.00;62369.91;5006884;28;20448;-66
2023/07/30 05:49:05;;;;;;;7.72;2.95;;;;;;;-144.48;100.00;62369.91;5008255;28;20109;-65
2023/07/30 05:51:30;;;;;;;6.80;3.22;;;;;;;-144.48;100.00;62369.91;5008511;28;20362;-65
2023/07/30 05:53:55;;;;;;;8.95;3.05;;;;;;;-144.48;100.00;62369.91;5008420;28;20064;-67
2023/07/30 05:56:21;;;;;;;5.38;2.65;;;;;;;-144.48;100.00;62369.91;5008088;28;20053;-63
2023/07/30 05:58:46;;;;;;;5.03;2.38;;;;;;;-144.48;100.00;62369.91;5007743;28;20435;-68
2023/07/30 06:01:11;;;;;;;5.53;2.58;;;;;;;-144.48;100.00;62369.91;5007806;28;20419;-63
2023/07/30 06:03:37;;;;;;;8.82;2.92;;;;;;;-144.48;100.00;62369.91;5007888;28;20502;-67
2023/07/30 06:06:03;;;;;;;8.52;2.70;;;;;;;-144.48;100.00;62369.91;5011774;28;20269;-66
2023/07/30 06:08:29;;;;;;;4.45;2.33;;;;;;;-144.48;100.00;62369.91;5011151;28;20474;-66
2023/07/30 06:10:55;;;;;;;6.43;2.00;;;;;;;-144.48;100.00;62369.91;5012605;28;20448;-68
2023/07/30 06:13:20;;;;;;;5.65;2.58;;;;;;;-144.48;100.00;62369.91;5013166;28;20082;-66
2023/07/30 06:15:46;;;;;;;3.72;1.85;;;;;;;-144.48;100.00;62369.91;5013349;28;20022;-66
2023/07/30 06:18:11;;;;;;;6.03;2.15;;;;;;;-144.48;100.00;62369.91;5013165;28;20108;-65
2023/07/30 06:20:37;;;;;;;9.30;2.30;;;;;;;-144.48;100.00;62369.91;5012730;28;20072;-67
2023/07/30 06:23:03;;;;;;;7.55;2.60;;;;;;;-144.48;100.00;62369.91;4994200;28;20317;-66
2023/07/30 06:25:29;;;;;;;5.95;2.70;;;;;;;-144.48;100.00;62369.91;5019551;28;20123;-65
2023/07/30 06:27:57;;;;;;;9.77;3.22;;;;;;;-144.48;100.00;62369.91;5020360;28;20032;-67
2023/07/30 06:30:22;;;;;;;11.68;2.30;;;;;;;-144.48;100.00;62369.91;5011489;28;20051;-66
2023/07/30 06:32:47;;;;;;;4.82;2.45;;;;;;;-144.48;100.00;62369.91;5011530;28;20034;-66
2023/07/30 06:35:13;;;;;;;25.08;3.08;;;;;;;-144.48;100.00;62369.91;5012051;28;20457;-65
2023/07/30 06:37:38;;;;;;;4.88;2.33;;;;;;;-144.48;100.00;62369.91;5011803;28;20021;-67
2023/07/30 06:40:06;;;;;;;4.97;2.28;;;;;;;-144.48;100.00;62369.91;5011853;28;20056;-64
2023/07/30 06:42:31;;;;;;;3.75;1.83;;;;;;;-144.48;100.00;62369.91;5010738;28;20503;-65
2023/07/30 06:44:56;;;;;;;5.65;2.38;;;;;;;-144.48;100.00;62369.91;5011166;28;20037;-68
2023/07/30 06:47:22;;;;;;;6.10;2.50;;;;;;;-144.48;100.00;62369.91;5011007;28;20034;-64
2023/07/30 06:49:47;;;;;;;4.22;2.20;;;;;;;-144.48;100.00;62369.91;4993815;28;20595;-67
2023/07/30 06:52:12;;;;;;;4.20;2.30;;;;;;;-144.48;100.00;62369.91;5011634;28;20028;-66
2023/07/30 06:54:38;;;;;;;8.63;2.50;;;;;;;-144.48;100.00;62369.91;4993665;28;20084;-67
2023/07/30 06:57:03;;;;;;;4.13;2.15;;;;;;;-144.48;100.00;62369.91;5012092;28;20257;-67
2023/07/30 06:59:29;;;;;;;10.50;2.40;;;;;;;-144.48;100.00;62369.91;5011359;28;20033;-67
2023/07/30 07:01:54;;;;;;;4.32;1.70;;;;;;;-144.48;100.00;62369.91;5011043;28;20034;-67
2023/07/30 07:04:19;;;;;;;4.22;2.40;;;;;;;-144.48;100.00;62369.91;5010581;28;20112;-65
2023/07/30 07:06:45;;;;;;;4.22;2.05;;;;;;;-144.48;100.00;62369.91;5011485;28;20158;-65
2023/07/30 07:09:10;;;;;;;12.68;3.70;;;;;;;-144.48;100.00;62369.91;5010873;28;20014;-65
2023/07/30 07:11:35;;;;;;;4.53;2.35;;;;;;;-144.48;100.00;62369.91;5010712;28;20510;-66
2023/07/30 07:14:01;;;;;;;11.35;2.13;;;;;;;-144.48;100.00;62369.91;5010595;28;20113;-66
2023/07/30 07:16:26;;;;;;;6.35;2.08;;;;;;;-144.48;100.00;62369.91;5009451;28;20249;-67
2023/07/30 07:18:52;;;;;;;4.82;2.08;;;;;;;-144.48;100.00;62369.91;5011049;28;20018;-65
2023/07/30 07:21:17;;;;;;;4.45;1.90;;;;;;;-144.48;100.00;62369.91;5010908;28;20435;-67
2023/07/30 07:23:42;;;;;;;7.22;2.60;;;;;;;-144.48;100.00;62369.91;5010720;28;20026;-67
2023/07/30 07:26:08;;;;;;;6.90;2.20;;;;;;;-144.48;100.00;62369.91;5018581;28;20395;-66
2023/07/30 07:28:33;;;;;;;9.15;1.90;;;;;;;-144.48;100.00;62369.91;5020464;28;20030;-66
2023/07/30 07:30:59;;;;;;;5.22;1.98;;;;;;;-144.48;100.00;62369.91;5029245;22;20414;-66
2023/07/30 07:33:24;;;;;;;4.72;2.25;;;;;;;-144.48;100.00;62369.91;5047447;28;20086;-68
2023/07/30 07:35:49;;;;;;;4.43;2.30;;;;;;;-144.48;100.00;62369.91;5051086;28;20056;-66
2023/07/30 07:38:15;;;;;;;7.10;2.40;;;;;;;-144.48;100.00;62369.91;5051633;28;20025;-67
2023/07/30 07:40:40;;;;;;;6.13;2.25;;;;;;;-144.48;100.00;62369.91;5050882;28;20509;-66
2023/07/30 07:43:07;;;;;;;6.32;1.92;;;;;;;-144.48;100.00;62369.91;5051293;28;20403;-65
2023/07/30 07:45:32;;;;;;;5.97;1.95;;;;;;;-144.48;100.00;62369.91;5051061;28;20037;-66
2023/07/30 07:47:58;;;;;;;6.13;2.15;;;;;;;-144.48;100.00;62369.91;5051380;28;20036;-67
2023/07/30 07:50:23;;;;;;;3.70;1.88;;;;;;;-144.48;100.00;62369.91;5051053;28;20025;-68
2023/07/30 07:52:49;;;;;;;4.65;2.40;;;;;;;-144.48;100.00;62369.91;5033413;28;20025;-65
2023/07/30 07:55:14;;;;;;;9.77;2.28;;;;;;;-144.48;100.00;62369.91;5050120;28;20029;-67
2023/07/30 07:57:39;;;;;;;5.18;2.50;;;;;;;-144.48;100.00;62369.91;5050200;28;20458;-66
2023/07/30 08:00:06;;;;;;;7.43;2.35;;;;;;;-144.48;100.00;62369.91;5050543;28;20082;-67
2023/07/30 08:02:32;;;;;;;6.38;2.15;;;;;;;-144.48;100.00;62369.91;5050745;28;20107;-66
2023/07/30 08:04:57;;;;;;;9.25;2.50;;;;;;;-144.48;100.00;62369.91;5050903;28;20096;-64
2023/07/30 08:07:23;;;;;;;9.85;2.53;;;;;;;-144.48;100.00;62369.91;5044632;28;20112;-67
2023/07/30 08:09:48;;;;;;;10.10;2.13;;;;;;;-144.48;100.00;62369.91;5030703;28;20138;-67
2023/07/30 08:12:14;;;;;;;8.60;2.65;;;;;;;-144.48;100.00;62369.91;5030358;28;20151;-68
2023/07/30 08:14:39;;;;;;;5.18;2.42;;;;;;;-144.48;100.00;62369.91;5030056;28;20037;-68
2023/07/30 08:17:05;;;;;;;6.53;2.72;;;;;;;-144.48;100.00;62369.91;5030302;28;20036;-67
2023/07/30 08:19:30;;;;;;;9.65;2.50;;;;;;;-144.48;100.00;62369.91;5030368;28;20026;-67
2023/07/30 08:21:56;;;;;;;7.47;2.92;;;;;;;-144.48;100.00;62369.91;5030608;28;20053;-68
2023/07/30 08:24:22;;;;;;;6.13;2.80;;;;;;;-144.48;100.00;62369.91;5030313;28;20482;-66
2023/07/30 08:26:47;;;;;;;9.55;2.38;;;;;;;-144.48;100.00;62369.91;5029909;28;20094;-65
2023/07/30 08:29:13;;;;;;;8.45;2.47;;;;;;;-144.48;100.00;62369.91;5030285;28;20068;-68
2023/07/30 08:31:40;;;;;;;4.53;2.45;;;;;;;-144.48;100.00;62369.91;5024616;28;20038;-67
2023/07/30 08:34:05;;;;;;;5.85;2.55;;;;;;;-144.48;100.00;62369.91;5030622;28;20103;-67
2023/07/30 08:36:31;;;;;;;5.60;2.90;;;;;;;-144.48;100.00;62369.91;5043007;28;20025;-65
2023/07/30 08:38:56;;;;;;;10.85;2.40;;;;;;;-144.48;100.00;62369.91;5030303;28;20028;-68
2023/07/30 08:41:22;;;;;;;12.60;3.35;;;;;;;-144.48;100.00;62369.91;5042597;28;20028;-66
2023/07/30 08:43:48;;;;;;;6.32;2.10;;;;;;;-144.48;100.00;62369.91;5043603;28;20028;-65
2023/07/30 08:46:15;;;;;;;6.25;2.35;;;;;;;-144.48;100.00;62369.91;5037737;28;20053;-67
2023/07/30 08:48:41;;;;;;;9.00;2.15;;;;;;;-144.48;100.00;62369.91;5036896;28;20029;-67
2023/07/30 08:51:06;;;;;;;5.00;2.35;;;;;;;-144.48;100.00;62369.91;5042878;28;20044;-66
2023/07/30 08:53:32;;;;;;;7.32;2.00;;;;;;;-144.48;100.00;62369.91;5043383;28;20112;-65
2023/07/30 08:55:58;;;;;;;3.50;1.90;;;;;;;-144.48;100.00;62369.91;5037439;28;20063;-66
2023/07/30 08:58:26;;;;;;;3.92;2.08;;;;;;;-144.48;100.00;62369.91;5036119;28;20108;-66
2023/07/30 09:00:54;;;;;;;6.00;1.57;;;;;;;-144.48;100.00;62369.91;5029679;28;20025;-63
2023/07/30 09:03:22;;;;;;;4.82;2.22;;;;;;;-144.48;100.00;62369.91;5011588;28;20021;-65
2023/07/30 09:05:48;;;;;;;3.17;1.97;;;;;;;-144.48;100.00;62369.91;5029531;28;20557;-64
2023/07/30 09:08:14;;;;;;;4.55;1.88;;;;;;;-144.48;100.00;62369.91;5030070;28;20075;-67
2023/07/30 09:10:40;;;;;;;4.63;1.70;;;;;;;-144.48;100.00;62369.91;5029949;28;20021;-68
2023/07/30 09:13:05;;;;;;;3.95;1.95;;;;;;;-144.48;100.00;62369.91;5029560;28;20502;-68
2023/07/30 09:15:41;;;;;;;6.32;2.03;;;;;;;-144.48;100.00;62369.91;5029485;28;20055;-67
2023/07/30 09:18:08;;;;;;;4.72;2.10;;;;;;;-144.48;100.00;62369.91;5029899;28;20026;-68
2023/07/30 09:20:41;;;;;;;4.60;2.25;;;;;;;-144.48;100.00;62369.91;5029315;28;20188;-63
2023/07/30 09:23:08;;;;;;;3.95;1.98;;;;;;;-144.48;100.00;62369.91;5029422;28;20083;-66
2023/07/30 09:25:34;;;;;;;4.75;1.70;;;;;;;-144.48;100.00;62369.91;5029071;28;20018;-67
2023/07/30 09:27:59;;;;;;;2.85;1.67;;;;;;;-144.48;100.00;62369.91;5029133;28;20450;-67
2023/07/30 09:30:27;;;;;;;2.78;1.60;;;;;;;-144.48;100.00;62369.91;5029402;28;20022;-66
2023/07/30 09:32:54;;;;;;;4.05;1.60;;;;;;;-144.48;100.00;62369.91;5023727;28;20025;-67
2023/07/30 09:35:20;;;;;;;3.38;1.55;;;;;;;-144.48;100.00;62369.91;5039926;28;20028;-68
2023/07/30 09:37:46;;;;;;;10.23;2.10;;;;;;;-144.48;100.00;62369.91;5035964;28;20574;-66
2023/07/30 09:40:13;;;;;;;4.28;1.98;;;;;;;-144.48;100.00;62369.91;5037470;28;20116;-67
2023/07/30 09:42:42;;;;;;;3.10;1.70;;;;;;;-144.48;100.00;62369.91;5042665;28;20395;-68
2023/07/30 09:45:22;;;;;;;3.15;1.60;;;;;;;-144.48;100.00;62369.91;5040594;28;20155;-67
2023/07/30 09:47:48;;;;;;;5.28;1.50;;;;;;;-144.48;100.00;62369.91;5031054;28;20028;-67
2023/07/30 09:50:15;;;;;;;3.60;1.83;;;;;;;-144.48;100.00;62369.91;5049936;28;20379;-69
2023/07/30 09:52:42;;;;;;;6.90;1.65;;;;;;;-144.48;100.00;62369.91;5049149;28;20028;-66
2023/07/30 09:55:08;;;;;;;2.53;1.52;;;;;;;-144.48;100.00;62369.91;5030756;28;20067;-67
2023/07/30 09:57:33;;;;;;;4.22;1.42;;;;;;;-144.48;100.00;62369.91;5030917;28;20513;-67
2023/07/30 09:59:59;;;;;;;3.30;1.60;;;;;;;-144.48;100.00;62369.91;5048734;28;20047;-67
2023/07/30 10:02:28;;;;;;;6.25;1.40;;;;;;;-144.48;100.00;62369.91;5048910;28;20040;-66
2023/07/30 10:04:56;;;;;;;3.80;1.88;;;;;;;-144.48;100.00;62369.91;5048666;28;20017;-68
2023/07/30 10:07:23;;;;;;;;;;;;;;;-144.48;100.00;62369.91;5028884;28;20087;-67
2023/07/30 10:09:53;;;;;;;2.83;1.40;;;;;;;-144.48;100.00;62369.91;5028898;28;19909;-66
2023/07/30 10:12:24;;;;;;;2.92;1.30;;;;;;;-144.48;100.00;62369.91;5029027;28;20018;-65
2023/07/30 10:14:50;;;;;;;4.55;1.55;;;;;;;-144.48;100.00;62369.91;5028690;28;20120;-65
2023/07/30 10:17:17;;;;;;;2.78;1.60;;;;;;;-144.48;100.00;62369.91;5029134;28;20431;-64
2023/07/30 10:19:46;;;;;;;3.58;1.48;;;;;;;-144.48;100.00;62369.91;5030545;28;20288;-69
2023/07/30 10:22:12;;;;;;;6.35;1.35;;;;;;;-144.48;100.00;62369.91;5028906;28;20021;-67
2023/07/30 10:24:38;;;;;;;3.53;1.20;;;;;;;-144.48;100.00;62369.91;5026281;28;20083;-67
2023/07/30 10:27:12;;;;;;;2.08;1.10;;;;;;;-144.48;100.00;62369.91;5028935;28;20029;-67
2023/07/30 10:29:41;;;;;;;2.55;1.30;;;;;;;-144.48;100.00;62369.91;5028777;28;20026;-66
2023/07/30 10:32:07;;;;;;;3.03;1.17;;;;;;;-144.48;100.00;62369.91;5023548;28;20037;-67
2023/07/30 10:34:47;;;;;;;3.70;1.40;;;;;;;-144.48;100.00;62369.91;5033161;28;20017;-68
2023/07/30 10:37:20;;;;;;;2.03;1.10;;;;;;;-144.48;100.00;62369.91;5036865;28;20035;-66
2023/07/30 10:39:48;;;;;;;13.63;1.65;;;;;;;-144.48;100.00;62369.91;5036766;28;20075;-67
2023/07/30 10:42:14;;;;;;;3.47;0.95;;;;;;;-144.48;100.00;62369.91;5035140;28;20037;-67
2023/07/30 10:44:49;;;;;;;5.80;1.30;;;;;;;-144.48;100.00;62369.91;5041071;28;20446;-67
2023/07/30 10:47:14;;;;;;;1.85;1.00;;;;;;;-144.48;100.00;62369.91;5042041;28;20119;-66
2023/07/30 10:49:43;;;;;;;3.10;1.35;;;;;;;-144.48;100.00;62369.91;5037579;28;20017;-69
2023/07/30 10:52:09;;;;;;;3.13;1.17;;;;;;;-144.48;100.00;62369.91;5038189;28;20491;-67
2023/07/30 10:54:35;;;;;;;1.70;1.10;;;;;;;-144.48;100.00;62369.91;5042163;28;20504;-67
2023/07/30 10:57:00;;;;;;;4.45;1.27;;;;;;;-144.48;100.00;62369.91;5027004;28;20396;-67
2023/07/30 10:59:26;;;;;;;2.60;1.08;;;;;;;-144.48;100.00;62369.91;5040531;28;20367;-66
2023/07/30 11:01:52;;;;;;;4.03;1.30;;;;;;;-144.48;100.00;62369.91;5037552;28;20602;-67
2023/07/30 11:04:19;;;;;;;5.68;1.10;;;;;;;-144.48;100.00;62369.91;5041911;28;20102;-66